Time;durP1;ratioP1;P1;durP2;ratioP2;P2;SDS_P1;SDS_P2;PMS_P1;PMS_P2;Temp;Humidity;BMP_temperature;BMP_pressure;BME280_temperature;BME280_humidity;BME280_pressure;Samples;Min_cycle;Max_cycle;Signal;HPM_P1;HPM_P2
2021/05/08 00:00:19;;;;;;;;;;;;;;;4.05;77.05;98793.05;2120685;84;20232;-72
2021/05/08 00:03:22;;;;;;;;;;;;;;;4.07;77.21;98802.92;2120924;84;20192;-72
2021/05/08 00:06:24;;;;;;;;;;;;;;;4.06;77.17;98805.11;2120690;84;20267;-72
2021/05/08 00:09:27;;;;;;;;;;;;;;;4.07;77.37;98806.81;2121177;84;20174;-75
2021/05/08 00:12:28;;;;;;;;;;;;;;;4.05;77.45;98806.47;2102495;84;20245;-72
2021/05/08 00:15:31;;;;;;;;;;;;;;;4.04;77.19;98807.36;2120906;84;20236;-72
2021/05/08 00:18:33;;;;;;;;;;;;;;;4.03;77.37;98813.01;2120722;84;20125;-74
2021/05/08 00:21:35;;;;;;;;;;;;;;;4.02;77.45;98816.95;2120655;84;20264;-72
2021/05/08 00:24:37;;;;;;;;;;;;;;;4.03;77.74;98813.01;2120774;84;20515;-72
2021/05/08 00:27:40;;;;;;;;;;;;;;;4.03;77.89;98819.96;2120619;84;20237;-71
2021/05/08 00:30:42;;;;;;;;;;;;;;;4.02;78.09;98829.47;2120921;84;20236;-72
2021/05/08 00:33:44;;;;;;;;;;;;;;;3.99;78.08;98824.39;2118546;83;20296;-72
2021/05/08 00:36:46;;;;;;;;;;;;;;;3.96;78.41;98828.39;2115774;84;20138;-72
2021/05/08 00:39:48;;;;;;;;;;;;;;;3.90;78.48;98827.31;2115778;84;20440;-73
2021/05/08 00:42:50;;;;;;;;;;;;;;;3.85;78.84;98822.72;2115911;84;20512;-72
2021/05/08 00:45:52;;;;;;;;;;;;;;;3.79;78.87;98836.73;2115627;84;20129;-72
2021/05/08 00:48:54;;;;;;;;;;;;;;;3.73;79.22;98840.38;2115894;84;20145;-71
2021/05/08 00:51:56;;;;;;;;;;;;;;;3.73;79.49;98839.55;2115667;84;20157;-72
2021/05/08 00:54:58;;;;;;;;;;;;;;;3.71;79.55;98842.66;2115590;84;20295;-73
2021/05/08 00:58:00;;;;;;;;;;;;;;;3.67;80.01;98853.56;2116041;84;20177;-72
2021/05/08 01:01:02;;;;;;;;;;;;;;;3.64;80.08;98842.00;2115782;84;20136;-72
2021/05/08 01:04:04;;;;;;;;;;;;;;;3.64;79.92;98849.31;2115667;84;20424;-72
2021/05/08 01:07:06;;;;;;;;;;;;;;;3.63;80.42;98854.56;2115643;84;20142;-72
2021/05/08 01:10:08;;;;;;;;;;;;;;;3.60;80.42;98865.03;2115995;84;20149;-71
2021/05/08 01:13:10;;;;;;;;;;;;;;;3.58;80.40;98862.49;2115691;84;20479;-72
2021/05/08 01:16:12;;;;;;;;;;;;;;;3.58;80.52;98853.88;2115626;84;20232;-72
2021/05/08 01:19:14;;;;;;;;;;;;;;;3.57;80.93;98861.25;2115742;84;20126;-72
2021/05/08 01:22:16;;;;;;;;;;;;;;;3.56;80.78;98874.67;2115976;84;20160;-72
2021/05/08 01:25:18;;;;;;;;;;;;;;;3.55;80.57;98865.19;2115568;84;20173;-72
2021/05/08 01:28:20;;;;;;;;;;;;;;;3.53;80.85;98881.23;2115633;84;20232;-72
2021/05/08 01:31:22;;;;;;;;;;;;;;;3.53;81.14;98879.94;2115661;84;20154;-72
2021/05/08 01:34:24;;;;;;;;;;;;;;;3.54;81.27;98884.23;2118391;84;20511;-72
2021/05/08 01:37:26;;;;;;;;;;;;;;;3.53;81.18;98890.77;2120852;84;20220;-72
2021/05/08 01:40:28;;;;;;;;;;;;;;;3.52;81.53;98894.25;2120648;84;20528;-71
2021/05/08 01:43:30;;;;;;;;;;;;;;;3.53;81.44;98891.60;2120612;84;20503;-71
2021/05/08 01:46:32;;;;;;;;;;;;;;;3.53;81.13;98894.20;2120606;84;20236;-72
2021/05/08 01:49:34;;;;;;;;;;;;;;;3.55;81.20;98902.80;2120788;84;20228;-72
2021/05/08 01:52:36;;;;;;;;;;;;;;;3.56;80.83;98901.91;2120694;84;20508;-74
2021/05/08 01:55:38;;;;;;;;;;;;;;;3.58;80.70;98907.05;2120607;84;20156;-72
2021/05/08 01:58:40;;;;;;;;;;;;;;;3.58;81.04;98909.18;2120639;84;20137;-72
2021/05/08 02:01:42;;;;;;;;;;;;;;;3.57;81.16;98910.53;2120634;84;20137;-72
2021/05/08 02:04:44;;;;;;;;;;;;;;;3.57;81.05;98921.73;2120725;84;20237;-72
2021/05/08 02:07:46;;;;;;;;;;;;;;;3.60;80.67;98906.53;2120620;84;20161;-72
2021/05/08 02:10:48;;;;;;;;;;;;;;;3.61;80.69;98914.73;2120629;84;20232;-72
2021/05/08 02:13:50;;;;;;;;;;;;;;;3.60;80.74;98929.42;2120613;84;20153;-72
2021/05/08 02:16:52;;;;;;;;;;;;;;;3.59;80.90;98913.91;2120625;84;20500;-71
2021/05/08 02:19:54;;;;;;;;;;;;;;;3.58;80.97;98926.05;2120590;84;20240;-72
2021/05/08 02:22:56;;;;;;;;;;;;;;;3.57;81.16;98927.39;2120627;84;20145;-72
2021/05/08 02:25:58;;;;;;;;;;;;;;;3.56;81.27;98937.35;2120552;84;20495;-72
2021/05/08 02:29:01;;;;;;;;;;;;;;;3.57;80.99;98928.69;2120628;84;20245;-71
2021/05/08 02:32:03;;;;;;;;;;;;;;;3.57;81.15;98932.58;2120623;84;20231;-74
2021/05/08 02:35:04;;;;;;;;;;;;;;;3.56;81.13;98937.35;2124930;84;20263;-71
2021/05/08 02:38:06;;;;;;;;;;;;;;;3.55;81.36;98952.08;2127567;84;20153;-71
2021/05/08 02:41:08;;;;;;;;;;;;;;;3.55;81.30;98944.30;2127230;84;20229;-72
2021/05/08 02:44:10;;;;;;;;;;;;;;;3.55;81.61;98955.97;2127291;84;20276;-71
2021/05/08 02:47:18;;;;;;;;;;;;;;;3.56;81.61;98959.40;2127316;84;20235;-71
2021/05/08 02:50:21;;;;;;;;;;;;;;;3.55;81.70;98973.25;2127419;84;20268;-72
2021/05/08 02:53:23;;;;;;;;;;;;;;;3.56;81.72;98970.64;2127374;84;20232;-72
2021/05/08 02:56:24;;;;;;;;;;;;;;;3.56;81.88;98968.48;2127469;84;20575;-71
2021/05/08 02:59:26;;;;;;;;;;;;;;;3.56;81.74;98974.96;2127390;84;20498;-71
2021/05/08 03:02:28;;;;;;;;;;;;;;;3.57;81.70;98974.08;2127405;84;20129;-71
2021/05/08 03:05:30;;;;;;;;;;;;;;;3.56;81.92;98980.15;2127436;84;20428;-72
2021/05/08 03:08:32;;;;;;;;;;;;;;;3.58;82.02;98980.97;2127395;84;20144;-71
2021/05/08 03:11:35;;;;;;;;;;;;;;;3.58;81.74;98983.11;2127377;84;20268;-71
2021/05/08 03:14:38;;;;;;;;;;;;;;;3.57;82.11;98988.34;2127349;84;20133;-71
2021/05/08 03:17:41;;;;;;;;;;;;;;;3.55;82.32;98994.00;2100846;84;22011;-72
2021/05/08 03:20:44;;;;;;;;;;;;;;;3.56;82.16;98994.41;2127460;84;20415;-72
2021/05/08 03:23:46;;;;;;;;;;;;;;;3.56;82.30;99003.49;2127564;84;20129;-72
2021/05/08 03:26:48;;;;;;;;;;;;;;;3.57;82.03;98996.13;2127341;84;20228;-71
2021/05/08 03:29:50;;;;;;;;;;;;;;;3.54;82.04;99006.59;2127358;84;20512;-72
2021/05/08 03:32:52;;;;;;;;;;;;;;;3.53;82.24;99007.02;2127450;84;20523;-75
2021/05/08 03:35:53;;;;;;;;;;;;;;;3.53;82.33;99024.34;2117548;83;20153;-68
2021/05/08 03:38:56;;;;;;;;;;;;;;;3.52;82.17;99022.62;2061601;86;20173;-70
2021/05/08 03:41:57;;;;;;;;;;;;;;;3.52;82.31;99029.11;2063350;86;20236;-71
2021/05/08 03:44:59;;;;;;;;;;;;;;;3.54;82.37;99026.05;2061499;86;20157;-73
2021/05/08 03:48:01;;;;;;;;;;;;;;;3.52;82.37;99033.87;2097727;85;20150;-71
2021/05/08 03:51:04;;;;;;;;;;;;;;;3.54;82.69;99030.77;2098416;85;20517;-70
2021/05/08 03:54:06;;;;;;;;;;;;;;;3.56;82.52;99036.78;2072306;86;20447;-72
2021/05/08 03:57:08;;;;;;;;;;;;;;;3.58;81.15;99034.98;2115741;84;20138;-73
2021/05/08 04:00:10;;;;;;;;;;;;;;;3.60;81.69;99039.66;2115719;84;20184;-71
2021/05/08 04:03:12;;;;;;;;;;;;;;;3.62;81.32;99034.43;2115903;84;20145;-73
2021/05/08 04:06:14;;;;;;;;;;;;;;;3.64;81.63;99046.92;2115813;84;20148;-72
2021/05/08 04:09:16;;;;;;;;;;;;;;;3.66;81.22;99047.72;2115816;84;20129;-72
2021/05/08 04:12:18;;;;;;;;;;;;;;;3.64;81.38;99052.95;2115691;84;20157;-72
2021/05/08 04:15:20;;;;;;;;;;;;;;;3.63;81.46;99059.48;2115685;84;20125;-73
2021/05/08 04:18:22;;;;;;;;;;;;;;;3.70;81.24;99062.30;2115707;84;20244;-72
2021/05/08 04:21:24;;;;;;;;;;;;;;;3.71;80.74;99064.02;2091751;84;20432;-72
2021/05/08 04:24:26;;;;;;;;;;;;;;;3.73;81.12;99071.30;2115671;84;20228;-72
2021/05/08 04:27:28;;;;;;;;;;;;;;;3.72;80.59;99079.13;2115760;84;20229;-71
2021/05/08 04:30:30;;;;;;;;;;;;;;;3.69;80.47;99083.94;2115682;84;20125;-71
2021/05/08 04:33:31;;;;;;;;;;;;;;;3.71;80.31;99088.66;2115996;84;20161;-74
2021/05/08 04:36:33;;;;;;;;;;;;;;;3.75;80.77;99079.90;2120627;84;20228;-72
2021/05/08 04:39:36;;;;;;;;;;;;;;;3.79;80.08;99088.00;2120897;84;20236;-72
2021/05/08 04:42:38;;;;;;;;;;;;;;;3.83;80.05;99102.17;2120688;84;20232;-74
2021/05/08 04:45:40;;;;;;;;;;;;;;;3.86;79.94;99105.52;2120639;84;20232;-71
2021/05/08 04:48:42;;;;;;;;;;;;;;;3.96;79.79;99090.53;2120807;84;20515;-71
2021/05/08 04:51:44;;;;;;;;;;;;;;;4.24;79.10;99098.34;2120706;84;20239;-72
2021/05/08 04:54:46;;;;;;;;;;;;;;;4.40;78.30;99092.69;2120654;84;20125;-72
2021/05/08 04:57:48;;;;;;;;;;;;;;;4.59;78.59;99098.13;2120689;84;20228;-72
2021/05/08 05:00:50;;;;;;;;;;;;;;;4.82;76.18;99110.38;2120693;84;20232;-72
2021/05/08 05:03:52;;;;;;;;;;;;;;;5.05;77.52;99110.06;2120690;84;20136;-74
2021/05/08 05:06:54;;;;;;;;;;;;;;;5.15;76.02;99101.87;2120709;84;20416;-75
2021/05/08 05:09:57;;;;;;;;;;;;;;;5.27;76.48;99111.03;2120638;84;20519;-72
2021/05/08 05:13:00;;;;;;;;;;;;;;;5.08;74.67;99106.89;2120695;84;20248;-72
2021/05/08 05:16:03;;;;;;;;;;;;;;;5.06;76.09;99100.04;2102783;84;20248;-72
2021/05/08 05:19:05;;;;;;;;;;;;;;;5.04;75.57;99109.20;2121000;84;20276;-73
2021/05/08 05:22:07;;;;;;;;;;;;;;;4.93;75.16;99110.88;2121128;84;20161;-72
2021/05/08 05:25:09;;;;;;;;;;;;;;;4.96;76.15;99109.92;2120921;84;20236;-72
2021/05/08 05:28:11;;;;;;;;;;;;;;;5.04;76.15;99130.00;2120667;84;20256;-72
2021/05/08 05:31:14;;;;;;;;;;;;;;;5.01;75.09;99129.67;2120656;84;20245;-72
2021/05/08 05:34:17;;;;;;;;;;;;;;;4.96;75.09;99134.63;2121392;84;20496;-72
2021/05/08 05:37:20;;;;;;;;;;;;;;;4.90;75.30;99130.91;2127370;84;20229;-74
2021/05/08 05:40:22;;;;;;;;;;;;;;;4.96;75.50;99130.72;2127249;84;20605;-72
2021/05/08 05:43:23;;;;;;;;;;;;;;;5.12;75.29;99131.89;2078050;84;20220;-72
2021/05/08 05:46:25;;;;;;;;;;;;;;;5.34;75.15;99135.93;2127203;84;20264;-72
2021/05/08 05:49:27;;;;;;;;;;;;;;;5.49;74.63;99138.44;2127253;84;20503;-72
2021/05/08 05:52:29;;;;;;;;;;;;;;;5.47;74.39;99141.98;2127252;84;20235;-72
2021/05/08 05:55:31;;;;;;;;;;;;;;;5.50;74.37;99142.75;2101034;84;20247;-72
2021/05/08 05:58:33;;;;;;;;;;;;;;;5.50;73.49;99140.14;2127459;84;20153;-75
2021/05/08 06:01:35;;;;;;;;;;;;;;;5.56;73.11;99142.98;2127229;84;20259;-72
2021/05/08 06:04:37;;;;;;;;;;;;;;;5.76;73.69;99140.97;2127443;84;20140;-74
2021/05/08 06:07:39;;;;;;;;;;;;;;;6.03;73.87;99135.66;2127467;84;20176;-74
2021/05/08 06:10:41;;;;;;;;;;;;;;;6.13;73.02;99150.50;2127236;84;20524;-74
2021/05/08 06:13:43;;;;;;;;;;;;;;;6.16;74.25;99156.45;2127227;84;20275;-74
2021/05/08 06:16:45;;;;;;;;;;;;;;;6.33;72.00;99148.44;2127568;84;20172;-73
2021/05/08 06:19:47;;;;;;;;;;;;;;;6.36;72.48;99148.31;2127251;84;20227;-74
2021/05/08 06:22:50;;;;;;;;;;;;;;;6.39;72.82;99162.09;2127503;84;20432;-72
2021/05/08 06:25:52;;;;;;;;;;;;;;;6.45;70.93;99166.65;2101015;84;20148;-72
2021/05/08 06:28:54;;;;;;;;;;;;;;;6.37;71.86;99169.09;2127395;84;20240;-72
2021/05/08 06:31:56;;;;;;;;;;;;;;;6.40;71.86;99168.14;2127422;84;20270;-73
2021/05/08 06:34:58;;;;;;;;;;;;;;;6.53;71.32;99166.74;2125637;84;20532;-72
2021/05/08 06:38:00;;;;;;;;;;;;;;;6.58;71.45;99169.20;2120805;84;20136;-74
2021/05/08 06:41:02;;;;;;;;;;;;;;;6.93;69.94;99165.16;2120808;84;20137;-74
2021/05/08 06:44:04;;;;;;;;;;;;;;;6.91;68.42;99169.60;2120869;84;20133;-74
2021/05/08 06:47:13;;;;;;;;;;;;;;;7.13;69.85;99163.50;2120871;84;20530;-74
2021/05/08 06:50:10;;;;;;;;;;;;;;;7.45;68.94;99164.73;2119990;84;20224;-74
2021/05/08 06:53:12;;;;;;;;;;;;;;;7.69;67.50;99163.30;2120771;84;20508;-74
2021/05/08 06:56:14;;;;;;;;;;;;;;;8.10;68.00;99151.91;2120741;84;20224;-74
2021/05/08 06:59:16;;;;;;;;;;;;;;;8.40;63.93;99147.50;2102507;84;20232;-74
2021/05/08 07:02:18;;;;;;;;;;;;;;;8.33;64.33;99157.39;2120875;84;20503;-74
2021/05/08 07:05:21;;;;;;;;;;;;;;;8.32;64.21;99155.71;2121167;84;20141;-74
2021/05/08 07:08:23;;;;;;;;;;;;;;;8.56;64.12;99154.19;2102592;84;20256;-74
2021/05/08 07:11:25;;;;;;;;;;;;;;;8.66;63.03;99156.31;2120865;84;20264;-74
2021/05/08 07:14:27;;;;;;;;;;;;;;;8.72;60.53;99164.33;2121009;84;20228;-74
2021/05/08 07:17:29;;;;;;;;;;;;;;;9.15;64.02;99141.73;2121233;84;20129;-74
2021/05/08 07:20:31;;;;;;;;;;;;;;;9.36;61.30;99156.82;2120779;84;20133;-74
2021/05/08 07:23:33;;;;;;;;;;;;;;;9.52;63.91;99139.86;2120785;84;20511;-74
2021/05/08 07:26:35;;;;;;;;;;;;;;;9.57;59.17;99151.41;2120726;84;20176;-74
2021/05/08 07:29:37;;;;;;;;;;;;;;;9.52;62.09;99153.82;2120748;84;20249;-74
2021/05/08 07:32:40;;;;;;;;;;;;;;;9.73;61.58;99156.72;2120961;84;20511;-74
2021/05/08 07:35:42;;;;;;;;;;;;;;;9.70;59.39;99161.17;2118813;84;20177;-74
2021/05/08 07:38:44;;;;;;;;;;;;;;;9.76;58.06;99153.94;2115863;84;20444;-74
2021/05/08 07:41:46;;;;;;;;;;;;;;;10.00;59.67;99152.63;2115713;84;20423;-73
2021/05/08 07:44:48;;;;;;;;;;;;;;;10.29;56.55;99159.86;2115701;84;20137;-74
2021/05/08 07:47:51;;;;;;;;;;;;;;;10.28;52.85;99165.55;2115720;84;20436;-74
2021/05/08 07:50:53;;;;;;;;;;;;;;;9.90;57.30;99156.67;2115667;84;20137;-74
2021/05/08 07:53:55;;;;;;;;;;;;;;;9.39;55.87;99161.90;2115703;84;20157;-74
2021/05/08 07:56:57;;;;;;;;;;;;;;;9.03;57.33;99175.06;2115811;84;20409;-74
2021/05/08 07:59:59;;;;;;;;;;;;;;;8.69;59.95;99168.84;2115718;84;20125;-74
2021/05/08 08:03:02;;;;;;;;;;;;;;;8.59;60.97;99165.37;2115676;84;20170;-74
2021/05/08 08:06:04;;;;;;;;;;;;;;;8.61;59.83;99172.66;2115685;84;20161;-74
2021/05/08 08:09:06;;;;;;;;;;;;;;;8.74;59.77;99175.55;2115819;84;20168;-74
2021/05/08 08:12:08;;;;;;;;;;;;;;;8.84;57.75;99180.72;2115942;84;20145;-74
2021/05/08 08:15:10;;;;;;;;;;;;;;;9.25;56.45;99197.09;2091512;84;20427;-74
2021/05/08 08:18:12;;;;;;;;;;;;;;;9.63;55.88;99168.13;2115769;84;20432;-74
2021/05/08 08:21:14;;;;;;;;;;;;;;;9.69;52.11;99174.35;2116061;84;20146;-74
2021/05/08 08:24:16;;;;;;;;;;;;;;;9.88;54.96;99177.72;2115754;84;20184;-74
2021/05/08 08:27:18;;;;;;;;;;;;;;;9.60;54.55;99195.32;2115752;84;20439;-74
2021/05/08 08:30:20;;;;;;;;;;;;;;;8.64;56.64;99193.91;2116027;84;20137;-73
2021/05/08 08:33:22;;;;;;;;;;;;;;;8.17;61.86;99185.16;2115688;84;20144;-74
2021/05/08 08:36:24;;;;;;;;;;;;;;;8.17;61.20;99206.06;2115717;84;20427;-74
2021/05/08 08:39:26;;;;;;;;;;;;;;;8.44;61.19;99206.56;2115668;84;20428;-74
2021/05/08 08:42:28;;;;;;;;;;;;;;;8.71;61.06;99189.24;2115646;84;20137;-74
2021/05/08 08:45:30;;;;;;;;;;;;;;;9.07;57.54;99208.02;2115961;84;20171;-74
2021/05/08 08:48:32;;;;;;;;;;;;;;;9.27;56.19;99196.56;2115670;84;20503;-74
2021/05/08 08:51:34;;;;;;;;;;;;;;;9.33;53.05;99207.55;2115668;84;20144;-74
2021/05/08 08:54:36;;;;;;;;;;;;;;;9.83;53.50;99208.54;2115995;84;20256;-74
2021/05/08 08:57:40;;;;;;;;;;;;;;;10.35;52.84;99179.21;2115746;84;20515;-74
2021/05/08 09:00:42;;;;;;;;;;;;;;;10.83;50.31;99177.88;2115660;84;20200;-74
2021/05/08 09:03:44;;;;;;;;;;;;;;;10.62;49.79;99190.45;2115642;84;20136;-74
2021/05/08 09:06:46;;;;;;;;;;;;;;;10.22;48.61;99197.34;2115866;84;20184;-74
2021/05/08 09:09:48;;;;;;;;;;;;;;;9.84;50.78;99198.45;2115772;84;20160;-74
2021/05/08 09:12:50;;;;;;;;;;;;;;;9.48;49.96;99223.42;2115636;84;20186;-74
2021/05/08 09:15:54;;;;;;;;;;;;;;;9.13;52.64;99235.19;2115635;84;20138;-75
2021/05/08 09:18:56;;;;;;;;;;;;;;;8.89;51.92;99226.73;2115730;84;20424;-74
2021/05/08 09:21:58;;;;;;;;;;;;;;;8.93;53.03;99219.97;2115648;84;20144;-74
2021/05/08 09:25:00;;;;;;;;;;;;;;;9.73;52.38;99206.02;2115628;84;20164;-74
2021/05/08 09:28:03;;;;;;;;;;;;;;;10.54;50.97;99219.70;2115725;84;20188;-74
2021/05/08 09:31:05;;;;;;;;;;;;;;;10.49;50.20;99191.11;2115642;84;20291;-73
2021/05/08 09:34:07;;;;;;;;;;;;;;;9.98;49.16;99199.49;2115645;84;20137;-74
2021/05/08 09:37:09;;;;;;;;;;;;;;;9.48;48.88;99219.05;2102191;84;20231;-75
2021/05/08 09:40:11;;;;;;;;;;;;;;;8.86;55.08;99219.04;2131142;84;20424;-73
2021/05/08 09:43:13;;;;;;;;;;;;;;;8.57;57.71;99210.80;2130970;84;20148;-74
2021/05/08 09:46:15;;;;;;;;;;;;;;;8.53;58.92;99202.23;2130989;84;20175;-74
2021/05/08 09:49:20;;;;;;;;;;;;;;;8.80;56.20;99204.48;2131038;84;20231;-75
2021/05/08 09:52:21;;;;;;;;;;;;;;;9.68;55.31;99195.78;2130946;84;20515;-75
2021/05/08 09:55:23;;;;;;;;;;;;;;;9.73;51.78;99216.97;2131154;84;20157;-74
2021/05/08 09:58:25;;;;;;;;;;;;;;;9.91;55.90;99201.58;2131235;84;20152;-74
2021/05/08 10:01:27;;;;;;;;;;;;;;;10.51;52.48;99192.33;2131437;84;20231;-74
2021/05/08 10:04:29;;;;;;;;;;;;;;;10.74;50.79;99185.33;2131209;84;20248;-75
2021/05/08 10:07:32;;;;;;;;;;;;;;;11.18;49.22;99196.05;2131209;84;20249;-74
2021/05/08 10:10:35;;;;;;;;;;;;;;;11.63;49.26;99215.29;2131190;84;20152;-74
2021/05/08 10:13:36;;;;;;;;;;;;;;;11.94;46.97;99171.45;2106586;84;20232;-74
2021/05/08 10:16:39;;;;;;;;;;;;;;;12.50;47.70;99179.38;2131301;84;20408;-74
2021/05/08 10:19:41;;;;;;;;;;;;;;;11.86;46.54;99183.69;2131207;84;20168;-74
2021/05/08 10:22:43;;;;;;;;;;;;;;;11.47;46.42;99219.77;2131164;84;20161;-74
2021/05/08 10:25:45;;;;;;;;;;;;;;;10.95;45.59;99185.52;2131281;84;20263;-74
2021/05/08 10:28:46;;;;;;;;;;;;;;;10.68;48.90;99190.93;2131583;84;20148;-74
2021/05/08 10:31:49;;;;;;;;;;;;;;;10.43;48.32;99200.63;2131324;84;20503;-74
2021/05/08 10:34:51;;;;;;;;;;;;;;;10.45;49.13;99203.16;2131186;84;20243;-74
2021/05/08 10:37:53;;;;;;;;;;;;;;;10.56;50.70;99203.43;2118088;84;20145;-74
2021/05/08 10:40:55;;;;;;;;;;;;;;;10.86;45.81;99200.87;2115780;84;20180;-75
2021/05/08 10:43:57;;;;;;;;;;;;;;;10.73;45.38;99197.22;2115757;84;20125;-74
2021/05/08 10:46:59;;;;;;;;;;;;;;;11.22;45.13;99193.14;2115742;84;20145;-74
2021/05/08 10:50:01;;;;;;;;;;;;;;;11.64;43.86;99189.84;2115773;84;20125;-74
2021/05/08 10:53:03;;;;;;;;;;;;;;;12.01;47.58;99193.79;2115969;84;20125;-74
2021/05/08 10:56:05;;;;;;;;;;;;;;;11.85;42.54;99165.38;2116246;84;20260;-74
2021/05/08 10:59:07;;;;;;;;;;;;;;;11.87;44.71;99184.55;2115780;84;20125;-74
2021/05/08 11:02:09;;;;;;;;;;;;;;;11.83;43.03;99186.98;2115763;84;20137;-74
2021/05/08 11:05:11;;;;;;;;;;;;;;;11.53;43.18;99199.22;2115661;84;20129;-74
2021/05/08 11:08:13;;;;;;;;;;;;;;;11.12;42.40;99221.31;2115952;84;20129;-74
2021/05/08 11:11:16;;;;;;;;;;;;;;;10.96;43.72;99190.71;2115769;84;20172;-74
2021/05/08 11:14:18;;;;;;;;;;;;;;;11.16;47.27;99178.20;2091769;84;20405;-74
2021/05/08 11:17:21;;;;;;;;;;;;;;;11.37;42.99;99188.77;2115869;84;20440;-74
2021/05/08 11:20:23;;;;;;;;;;;;;;;11.88;42.22;99191.03;2115751;84;20436;-74
2021/05/08 11:23:25;;;;;;;;;;;;;;;12.33;43.71;99190.12;2115820;84;20443;-74
2021/05/08 11:26:28;;;;;;;;;;;;;;;12.64;40.71;99204.79;2115812;84;20427;-74
2021/05/08 11:29:31;;;;;;;;;;;;;;;12.87;42.14;99174.84;2115732;84;20177;-74
2021/05/08 11:32:33;;;;;;;;;;;;;;;12.28;41.00;99191.70;2091434;84;20145;-74
2021/05/08 11:35:36;;;;;;;;;;;;;;;11.79;42.02;99191.12;2115799;83;20431;-75
2021/05/08 11:38:38;;;;;;;;;;;;;;;11.47;42.23;99189.56;2120739;84;20520;-74
2021/05/08 11:41:40;;;;;;;;;;;;;;;12.10;41.01;99212.09;2121064;84;20129;-74
2021/05/08 11:44:42;;;;;;;;;;;;;;;12.69;41.44;99192.68;2121061;84;20129;-74
2021/05/08 11:47:44;;;;;;;;;;;;;;;12.80;38.64;99197.62;2120930;84;20228;-74
2021/05/08 11:50:46;;;;;;;;;;;;;;;12.91;39.10;99197.39;2120977;84;20228;-74
2021/05/08 11:53:48;;;;;;;;;;;;;;;13.24;41.33;99185.59;2120800;84;20535;-74
2021/05/08 11:56:50;;;;;;;;;;;;;;;13.15;39.34;99204.17;2102433;84;20162;-74
2021/05/08 11:59:53;;;;;;;;;;;;;;;12.92;39.49;99196.46;2120829;84;20244;-74
2021/05/08 12:02:54;;;;;;;;;;;;;;;12.51;40.53;99207.34;2120699;84;20595;-74
2021/05/08 12:05:57;;;;;;;;;;;;;;;12.12;42.13;99200.55;2120785;84;20539;-74
2021/05/08 12:08:59;;;;;;;;;;;;;;;11.81;43.34;99186.22;2121059;84;20137;-74
2021/05/08 12:12:01;;;;;;;;;;;;;;;11.65;43.39;99186.30;2120735;84;20283;-74
2021/05/08 12:15:03;;;;;;;;;;;;;;;11.92;42.29;99191.67;2121045;84;20232;-74
2021/05/08 12:18:06;;;;;;;;;;;;;;;12.64;42.26;99185.92;2120711;84;20517;-74
2021/05/08 12:21:17;;;;;;;;;;;;;;;13.27;40.20;99171.73;2260166;79;20127;-71
2021/05/08 12:24:28;;;;;;;;;;;;;;;13.58;37.81;99175.48;2260120;79;20123;-71
2021/05/08 12:27:40;;;;;;;;;;;;;;;13.08;38.45;99180.02;2309014;76;20125;-73
2021/05/08 12:30:52;;;;;;;;;;;;;;;13.61;40.09;99173.94;2260146;79;20127;-73
2021/05/08 12:34:03;;;;;;;;;;;;;;;13.08;35.59;99175.23;2260109;79;20222;-71
2021/05/08 12:37:15;;;;;;;;;;;;;;;12.50;36.75;99175.88;2260140;79;20214;-71
2021/05/08 12:40:27;;;;;;;;;;;;;;;13.14;36.63;99185.36;2263375;79;20107;-74
2021/05/08 12:43:39;;;;;;;;;;;;;;;12.96;35.00;99190.05;2308860;76;20105;-73
2021/05/08 12:47:18;;;;;;;;;;;;;;;13.24;35.85;99172.42;2392568;74;20141;-74
2021/05/08 12:50:31;;;;;;;;;;;;;;;13.00;36.10;99183.16;2308918;76;20140;-73
2021/05/08 12:53:42;;;;;;;;;;;;;;;12.59;37.79;99165.62;2263219;79;20461;-73
2021/05/08 12:56:54;;;;;;;;;;;;;;;12.29;36.97;99167.92;2260130;79;20214;-73
2021/05/08 13:00:05;;;;;;;;;;;;;;;12.36;38.98;99157.88;2260264;79;20151;-72
2021/05/08 13:03:16;;;;;;;;;;;;;;;12.21;39.06;99165.41;2308873;76;20388;-72
2021/05/08 13:06:28;;;;;;;;;;;;;;;11.92;39.35;99170.64;2260249;79;20131;-71
2021/05/08 13:09:39;;;;;;;;;;;;;;;11.76;40.06;99175.98;2260159;79;20402;-74
2021/05/08 13:12:51;;;;;;;;;;;;;;;11.81;41.38;99179.64;2260104;79;20230;-73
2021/05/08 13:16:01;;;;;;;;;;;;;;;12.13;41.24;99185.61;2263274;79;20127;-73
2021/05/08 13:19:13;;;;;;;;;;;;;;;12.28;40.63;99174.15;2260104;79;20214;-73
2021/05/08 13:22:24;;;;;;;;;;;;;;;12.97;38.04;99189.09;2308866;76;20124;-71
2021/05/08 13:25:36;;;;;;;;;;;;;;;13.49;39.13;99163.77;2260149;79;20214;-73
2021/05/08 13:28:48;;;;;;;;;;;;;;;13.77;36.72;99161.88;2263245;79;20217;-73
2021/05/08 13:32:05;;;;;;;;;;;;;;;13.40;37.15;99177.06;2263670;79;20121;-73
2021/05/08 13:35:17;;;;;;;;;;;;;;;12.69;37.12;99171.14;2260101;79;20127;-73
2021/05/08 13:38:28;;;;;;;;;;;;;;;12.71;37.11;99161.34;2260135;79;20218;-73
2021/05/08 13:41:46;;;;;;;;;;;;;;;13.09;35.59;99175.62;2263764;79;20173;-71
2021/05/08 13:44:58;;;;;;;;;;;;;;;13.18;36.51;99157.39;2260123;79;20103;-73
2021/05/08 13:48:09;;;;;;;;;;;;;;;12.77;36.72;99153.53;2260110;79;20281;-73
2021/05/08 13:51:20;;;;;;;;;;;;;;;12.49;38.23;99148.73;2260116;79;20124;-73
2021/05/08 13:54:32;;;;;;;;;;;;;;;12.30;40.21;99168.31;2260209;79;20131;-72
2021/05/08 13:57:42;;;;;;;;;;;;;;;12.12;37.15;99182.59;2263262;79;20221;-73
2021/05/08 14:00:59;;;;;;;;;;;;;;;11.88;39.17;99180.96;2263126;79;20452;-73
2021/05/08 14:04:11;;;;;;;;;;;;;;;11.52;39.21;99192.74;2260216;79;20139;-72
2021/05/08 14:07:22;;;;;;;;;;;;;;;10.95;45.08;99207.83;2308927;76;20140;-73
2021/05/08 14:10:33;;;;;;;;;;;;;;;10.70;45.94;99215.77;2263423;79;20218;-72
2021/05/08 14:13:45;;;;;;;;;;;;;;;10.89;46.34;99219.07;2260108;79;20214;-73
2021/05/08 14:17:02;;;;;;;;;;;;;;;11.60;43.20;99193.98;2263230;79;20495;-72
2021/05/08 14:20:13;;;;;;;;;;;;;;;12.77;41.44;99182.48;2260134;79;20218;-73
2021/05/08 14:23:24;;;;;;;;;;;;;;;13.51;39.69;99167.12;2263246;79;20222;-73
2021/05/08 14:26:35;;;;;;;;;;;;;;;13.85;38.83;99172.25;2309008;76;20121;-73
2021/05/08 14:29:47;;;;;;;;;;;;;;;13.71;39.49;99163.13;2260267;79;20131;-73
2021/05/08 14:33:05;;;;;;;;;;;;;;;13.26;39.35;99163.48;2309138;76;20137;-73
2021/05/08 14:36:22;;;;;;;;;;;;;;;12.63;40.12;99168.91;2263134;79;20149;-73
2021/05/08 14:39:33;;;;;;;;;;;;;;;12.18;41.66;99168.23;2309012;76;20124;-73
2021/05/08 14:42:44;;;;;;;;;;;;;;;11.87;41.47;99193.27;2260134;79;20151;-74
2021/05/08 14:45:56;;;;;;;;;;;;;;;11.22;45.16;99215.91;2263276;79;20218;-72
2021/05/08 14:49:06;;;;;;;;;;;;;;;10.97;45.78;99213.38;2260306;79;20123;-73
2021/05/08 14:52:24;;;;;;;;;;;;;;;11.72;44.99;99216.52;2263240;79;20280;-73
2021/05/08 14:55:35;;;;;;;;;;;;;;;12.53;42.74;99205.94;2260139;79;20139;-71
2021/05/08 14:58:47;;;;;;;;;;;;;;;13.21;42.18;99210.83;2260128;79;20214;-73
2021/05/08 15:01:59;;;;;;;;;;;;;;;13.48;40.73;99198.97;2260116;79;20131;-73
2021/05/08 15:05:16;;;;;;;;;;;;;;;14.00;40.59;99189.28;2263199;79;20161;-73
2021/05/08 15:08:28;;;;;;;;;;;;;;;14.40;39.76;99186.97;2309083;76;20140;-71
2021/05/08 15:11:39;;;;;;;;;;;;;;;15.26;38.47;99193.95;2260133;79;20481;-73
2021/05/08 15:14:50;;;;;;;;;;;;;;;15.98;37.46;99184.16;2263357;79;20218;-73
2021/05/08 15:18:20;;;;;;;;;;;;;;;17.43;34.01;99180.48;2373935;74;20417;-72
2021/05/08 15:21:32;;;;;;;;;;;;;;;18.16;33.37;99175.20;2309023;76;20109;-71
2021/05/08 15:24:44;;;;;;;;;;;;;;;19.02;32.63;99173.38;2260112;79;20214;-71
2021/05/08 15:27:55;;;;;;;;;;;;;;;19.45;31.58;99177.91;2263399;79;20238;-71
2021/05/08 15:31:06;;;;;;;;;;;;;;;19.47;28.96;99182.62;2260267;79;20107;-71
2021/05/08 15:34:17;;;;;;;;;;;;;;;19.77;27.90;99164.75;2260257;79;20123;-71
2021/05/08 15:37:29;;;;;;;;;;;;;;;18.87;30.52;99172.45;2308894;76;20121;-71
2021/05/08 15:40:40;;;;;;;;;;;;;;;16.86;32.05;99174.55;2260135;79;20210;-71
2021/05/08 15:43:52;;;;;;;;;;;;;;;15.08;34.52;99173.69;2260102;79;20214;-71
2021/05/08 15:47:04;;;;;;;;;;;;;;;13.88;36.00;99194.08;2308979;76;20121;-71
2021/05/08 15:50:14;;;;;;;;;;;;;;;13.11;38.19;99196.09;2260128;79;20222;-73
2021/05/08 15:53:25;;;;;;;;;;;;;;;12.58;38.83;99195.98;2308767;76;20104;-71
2021/05/08 15:56:44;;;;;;;;;;;;;;;12.21;40.33;99183.81;2263120;79;20447;-73
2021/05/08 15:59:55;;;;;;;;;;;;;;;11.98;40.85;99183.92;2263260;79;20130;-73
2021/05/08 16:03:07;;;;;;;;;;;;;;;11.78;41.95;99191.22;2308943;76;20410;-72
2021/05/08 16:06:19;;;;;;;;;;;;;;;11.63;43.34;99190.33;2260114;79;20151;-73